sensor_id;sensor_type;location;lat;lon;timestamp;temperature;humidity
37794;DHT22;23632;48.826;15.176;2023-02-28T00:01:33;2.20;65.50
37794;DHT22;23632;48.826;15.176;2023-02-28T00:04:00;2.20;65.50
37794;DHT22;23632;48.826;15.176;2023-02-28T00:06:27;2.20;65.50
37794;DHT22;23632;48.826;15.176;2023-02-28T00:08:55;2.20;65.50
37794;DHT22;23632;48.826;15.176;2023-02-28T00:11:22;2.20;65.40
37794;DHT22;23632;48.826;15.176;2023-02-28T00:13:49;2.20;65.30
37794;DHT22;23632;48.826;15.176;2023-02-28T00:16:19;2.20;65.30
37794;DHT22;23632;48.826;15.176;2023-02-28T00:18:48;2.20;65.20
37794;DHT22;23632;48.826;15.176;2023-02-28T00:21:17;2.10;65.00
37794;DHT22;23632;48.826;15.176;2023-02-28T00:23:45;2.20;65.10
37794;DHT22;23632;48.826;15.176;2023-02-28T00:26:12;2.20;64.90
37794;DHT22;23632;48.826;15.176;2023-02-28T00:28:43;2.10;64.70
37794;DHT22;23632;48.826;15.176;2023-02-28T00:31:10;2.10;65.50
37794;DHT22;23632;48.826;15.176;2023-02-28T00:33:37;2.10;64.60
37794;DHT22;23632;48.826;15.176;2023-02-28T00:36:07;2.10;64.50
37794;DHT22;23632;48.826;15.176;2023-02-28T00:38:37;2.10;64.50
37794;DHT22;23632;48.826;15.176;2023-02-28T00:41:05;2.00;64.40
37794;DHT22;23632;48.826;15.176;2023-02-28T00:43:35;2.00;64.40
37794;DHT22;23632;48.826;15.176;2023-02-28T00:46:03;2.00;64.40
37794;DHT22;23632;48.826;15.176;2023-02-28T00:48:31;2.00;64.40
37794;DHT22;23632;48.826;15.176;2023-02-28T00:50:58;2.00;64.30
37794;DHT22;23632;48.826;15.176;2023-02-28T00:53:26;2.00;64.40
37794;DHT22;23632;48.826;15.176;2023-02-28T00:55:56;2.00;64.30
37794;DHT22;23632;48.826;15.176;2023-02-28T00:58:25;2.00;64.40
37794;DHT22;23632;48.826;15.176;2023-02-28T01:00:52;1.90;64.40
37794;DHT22;23632;48.826;15.176;2023-02-28T01:03:21;1.90;64.40
37794;DHT22;23632;48.826;15.176;2023-02-28T01:05:49;1.90;64.40
37794;DHT22;23632;48.826;15.176;2023-02-28T01:08:16;1.90;64.40
37794;DHT22;23632;48.826;15.176;2023-02-28T01:10:43;1.90;64.40
37794;DHT22;23632;48.826;15.176;2023-02-28T01:13:12;1.90;64.40
37794;DHT22;23632;48.826;15.176;2023-02-28T01:15:48;1.90;64.50
37794;DHT22;23632;48.826;15.176;2023-02-28T01:18:19;1.90;64.50
37794;DHT22;23632;48.826;15.176;2023-02-28T01:20:46;1.80;64.40
37794;DHT22;23632;48.826;15.176;2023-02-28T01:23:15;1.80;64.40
37794;DHT22;23632;48.826;15.176;2023-02-28T01:25:42;1.80;64.40
37794;DHT22;23632;48.826;15.176;2023-02-28T01:28:09;1.80;64.60
37794;DHT22;23632;48.826;15.176;2023-02-28T01:30:36;1.80;64.50
37794;DHT22;23632;48.826;15.176;2023-02-28T01:33:03;1.70;64.40
37794;DHT22;23632;48.826;15.176;2023-02-28T01:35:34;1.70;64.50
37794;DHT22;23632;48.826;15.176;2023-02-28T01:38:02;1.70;64.60
37794;DHT22;23632;48.826;15.176;2023-02-28T01:40:46;1.60;64.60
37794;DHT22;23632;48.826;15.176;2023-02-28T01:46:12;1.50;64.70
37794;DHT22;23632;48.826;15.176;2023-02-28T01:51:31;1.30;64.80
37794;DHT22;23632;48.826;15.176;2023-02-28T01:54:07;1.20;65.00
37794;DHT22;23632;48.826;15.176;2023-02-28T01:56:44;1.20;65.10
37794;DHT22;23632;48.826;15.176;2023-02-28T01:59:24;1.10;65.10
37794;DHT22;23632;48.826;15.176;2023-02-28T02:01:54;1.00;65.20
37794;DHT22;23632;48.826;15.176;2023-02-28T02:04:24;1.00;65.40
37794;DHT22;23632;48.826;15.176;2023-02-28T02:06:53;0.80;65.40
37794;DHT22;23632;48.826;15.176;2023-02-28T02:09:20;0.80;65.80
37794;DHT22;23632;48.826;15.176;2023-02-28T02:11:47;0.70;65.60
37794;DHT22;23632;48.826;15.176;2023-02-28T02:14:36;0.70;65.80
37794;DHT22;23632;48.826;15.176;2023-02-28T02:17:35;0.60;65.90
37794;DHT22;23632;48.826;15.176;2023-02-28T02:24:11;0.40;65.70
37794;DHT22;23632;48.826;15.176;2023-02-28T02:30:21;0.20;66.00
37794;DHT22;23632;48.826;15.176;2023-02-28T02:36:22;0.10;66.20
37794;DHT22;23632;48.826;15.176;2023-02-28T02:38:59;0.00;66.20
37794;DHT22;23632;48.826;15.176;2023-02-28T02:41:39;-0.10;66.30
37794;DHT22;23632;48.826;15.176;2023-02-28T02:44:34;-0.10;66.50
37794;DHT22;23632;48.826;15.176;2023-02-28T02:47:09;-0.20;66.50
37794;DHT22;23632;48.826;15.176;2023-02-28T02:49:42;-0.20;66.70
37794;DHT22;23632;48.826;15.176;2023-02-28T02:52:14;-0.30;66.80
37794;DHT22;23632;48.826;15.176;2023-02-28T02:54:46;-0.30;66.90
37794;DHT22;23632;48.826;15.176;2023-02-28T02:57:30;-0.40;67.00
37794;DHT22;23632;48.826;15.176;2023-02-28T03:00:02;-0.40;67.10
37794;DHT22;23632;48.826;15.176;2023-02-28T03:02:32;-0.40;67.30
37794;DHT22;23632;48.826;15.176;2023-02-28T03:05:04;-0.40;67.30
37794;DHT22;23632;48.826;15.176;2023-02-28T03:07:36;-0.50;67.50
37794;DHT22;23632;48.826;15.176;2023-02-28T03:10:25;-0.50;67.70
37794;DHT22;23632;48.826;15.176;2023-02-28T03:13:37;-0.50;68.60
37794;DHT22;23632;48.826;15.176;2023-02-28T03:28:02;-0.70;68.10
37794;DHT22;23632;48.826;15.176;2023-02-28T03:30:54;-0.70;68.20
37794;DHT22;23632;48.826;15.176;2023-02-28T03:33:50;-0.80;68.10
37794;DHT22;23632;48.826;15.176;2023-02-28T03:36:29;-0.80;68.30
37794;DHT22;23632;48.826;15.176;2023-02-28T03:39:04;-0.80;68.30
37794;DHT22;23632;48.826;15.176;2023-02-28T03:44:55;-0.90;68.20
37794;DHT22;23632;48.826;15.176;2023-02-28T03:47:29;-0.90;68.20
37794;DHT22;23632;48.826;15.176;2023-02-28T03:50:07;-1.00;68.10
37794;DHT22;23632;48.826;15.176;2023-02-28T03:52:44;-1.00;68.20
37794;DHT22;23632;48.826;15.176;2023-02-28T03:55:16;-1.00;68.10
37794;DHT22;23632;48.826;15.176;2023-02-28T03:58:12;-1.10;68.10
37794;DHT22;23632;48.826;15.176;2023-02-28T04:00:51;-1.10;68.10
37794;DHT22;23632;48.826;15.176;2023-02-28T04:03:22;-1.10;68.10
37794;DHT22;23632;48.826;15.176;2023-02-28T04:05:53;-1.10;68.30
37794;DHT22;23632;48.826;15.176;2023-02-28T04:08:22;-1.10;68.60
37794;DHT22;23632;48.826;15.176;2023-02-28T04:10:58;-1.10;68.60
37794;DHT22;23632;48.826;15.176;2023-02-28T04:13:31;-1.20;68.60
37794;DHT22;23632;48.826;15.176;2023-02-28T04:15:58;-1.20;68.70
37794;DHT22;23632;48.826;15.176;2023-02-28T04:18:25;-1.20;68.70
37794;DHT22;23632;48.826;15.176;2023-02-28T04:20:52;-1.20;68.70
37794;DHT22;23632;48.826;15.176;2023-02-28T04:23:19;-1.20;68.70
37794;DHT22;23632;48.826;15.176;2023-02-28T04:25:46;-1.20;69.70
37794;DHT22;23632;48.826;15.176;2023-02-28T04:28:13;-1.20;68.90
37794;DHT22;23632;48.826;15.176;2023-02-28T04:30:40;-1.20;68.90
37794;DHT22;23632;48.826;15.176;2023-02-28T04:33:07;-1.20;69.00
37794;DHT22;23632;48.826;15.176;2023-02-28T04:35:34;-1.20;69.10
37794;DHT22;23632;48.826;15.176;2023-02-28T04:38:01;-1.30;69.00
37794;DHT22;23632;48.826;15.176;2023-02-28T04:40:28;-1.30;69.20
37794;DHT22;23632;48.826;15.176;2023-02-28T04:42:55;-1.30;69.10
37794;DHT22;23632;48.826;15.176;2023-02-28T04:45:22;-1.30;69.20
37794;DHT22;23632;48.826;15.176;2023-02-28T04:47:49;-1.30;69.20
37794;DHT22;23632;48.826;15.176;2023-02-28T04:50:16;-1.30;69.20
37794;DHT22;23632;48.826;15.176;2023-02-28T04:52:43;-1.30;69.40
37794;DHT22;23632;48.826;15.176;2023-02-28T04:55:10;-1.30;69.40
37794;DHT22;23632;48.826;15.176;2023-02-28T04:57:37;-1.30;69.50
37794;DHT22;23632;48.826;15.176;2023-02-28T05:00:04;-1.30;69.30
37794;DHT22;23632;48.826;15.176;2023-02-28T05:02:38;-1.40;69.20
37794;DHT22;23632;48.826;15.176;2023-02-28T05:05:06;-1.40;69.20
37794;DHT22;23632;48.826;15.176;2023-02-28T05:07:33;-1.40;69.20
37794;DHT22;23632;48.826;15.176;2023-02-28T05:10:00;-1.40;69.20
37794;DHT22;23632;48.826;15.176;2023-02-28T05:12:27;-1.50;69.10
37794;DHT22;23632;48.826;15.176;2023-02-28T05:14:54;-1.50;69.30
37794;DHT22;23632;48.826;15.176;2023-02-28T05:17:21;-1.50;69.30
37794;DHT22;23632;48.826;15.176;2023-02-28T05:19:48;-1.50;69.40
37794;DHT22;23632;48.826;15.176;2023-02-28T05:22:15;-1.50;69.40
37794;DHT22;23632;48.826;15.176;2023-02-28T05:24:43;-1.60;69.50
37794;DHT22;23632;48.826;15.176;2023-02-28T05:27:10;-1.60;69.60
37794;DHT22;23632;48.826;15.176;2023-02-28T05:29:37;-1.60;69.60
37794;DHT22;23632;48.826;15.176;2023-02-28T05:32:12;-1.60;69.70
37794;DHT22;23632;48.826;15.176;2023-02-28T05:34:39;-1.60;69.80
37794;DHT22;23632;48.826;15.176;2023-02-28T05:37:14;-1.60;69.90
37794;DHT22;23632;48.826;15.176;2023-02-28T05:39:42;-1.60;70.00
37794;DHT22;23632;48.826;15.176;2023-02-28T05:42:09;-1.60;70.00
37794;DHT22;23632;48.826;15.176;2023-02-28T05:44:36;-1.60;70.20
37794;DHT22;23632;48.826;15.176;2023-02-28T05:47:03;-1.60;70.40
37794;DHT22;23632;48.826;15.176;2023-02-28T05:49:30;-1.60;70.30
37794;DHT22;23632;48.826;15.176;2023-02-28T05:51:57;-1.60;70.30
37794;DHT22;23632;48.826;15.176;2023-02-28T05:54:24;-1.60;70.30
37794;DHT22;23632;48.826;15.176;2023-02-28T05:56:51;-1.60;70.40
37794;DHT22;23632;48.826;15.176;2023-02-28T05:59:18;-1.60;70.50
37794;DHT22;23632;48.826;15.176;2023-02-28T06:01:46;-1.50;70.70
37794;DHT22;23632;48.826;15.176;2023-02-28T06:04:18;-1.50;70.90
37794;DHT22;23632;48.826;15.176;2023-02-28T06:06:57;-1.50;70.90
37794;DHT22;23632;48.826;15.176;2023-02-28T06:09:24;-1.40;71.00
37794;DHT22;23632;48.826;15.176;2023-02-28T06:11:51;-1.40;71.00
37794;DHT22;23632;48.826;15.176;2023-02-28T06:14:19;-1.40;71.10
37794;DHT22;23632;48.826;15.176;2023-02-28T06:16:47;-1.30;71.20
37794;DHT22;23632;48.826;15.176;2023-02-28T06:19:14;-1.30;71.30
37794;DHT22;23632;48.826;15.176;2023-02-28T06:21:42;-1.20;71.30
37794;DHT22;23632;48.826;15.176;2023-02-28T06:24:10;-1.10;71.40
37794;DHT22;23632;48.826;15.176;2023-02-28T06:26:37;-1.10;71.20
37794;DHT22;23632;48.826;15.176;2023-02-28T06:29:04;-1.00;71.30
37794;DHT22;23632;48.826;15.176;2023-02-28T06:31:31;-0.90;71.30
37794;DHT22;23632;48.826;15.176;2023-02-28T06:33:59;-0.80;71.30
37794;DHT22;23632;48.826;15.176;2023-02-28T06:36:25;-0.80;71.20
37794;DHT22;23632;48.826;15.176;2023-02-28T06:38:53;-0.70;71.10
37794;DHT22;23632;48.826;15.176;2023-02-28T06:41:25;-0.60;71.20
37794;DHT22;23632;48.826;15.176;2023-02-28T06:43:53;-0.60;71.10
37794;DHT22;23632;48.826;15.176;2023-02-28T06:46:21;-0.50;71.00
37794;DHT22;23632;48.826;15.176;2023-02-28T06:48:49;-0.40;71.10
37794;DHT22;23632;48.826;15.176;2023-02-28T06:51:18;-0.40;71.00
37794;DHT22;23632;48.826;15.176;2023-02-28T06:53:51;-0.30;71.00
37794;DHT22;23632;48.826;15.176;2023-02-28T06:56:18;-0.30;70.90
37794;DHT22;23632;48.826;15.176;2023-02-28T06:58:48;-0.20;71.00
37794;DHT22;23632;48.826;15.176;2023-02-28T07:01:16;-0.20;71.00
37794;DHT22;23632;48.826;15.176;2023-02-28T07:03:43;-0.20;70.90
37794;DHT22;23632;48.826;15.176;2023-02-28T07:06:10;-0.10;71.00
37794;DHT22;23632;48.826;15.176;2023-02-28T07:08:38;-0.10;70.90
37794;DHT22;23632;48.826;15.176;2023-02-28T07:11:06;0.00;70.90
37794;DHT22;23632;48.826;15.176;2023-02-28T07:13:33;0.00;70.90
37794;DHT22;23632;48.826;15.176;2023-02-28T07:16:06;0.10;70.90
37794;DHT22;23632;48.826;15.176;2023-02-28T07:18:36;0.20;70.90
37794;DHT22;23632;48.826;15.176;2023-02-28T07:21:05;0.20;70.90
37794;DHT22;23632;48.826;15.176;2023-02-28T07:23:34;0.20;71.00
37794;DHT22;23632;48.826;15.176;2023-02-28T07:26:01;0.30;70.90
37794;DHT22;23632;48.826;15.176;2023-02-28T07:28:29;0.30;70.80
37794;DHT22;23632;48.826;15.176;2023-02-28T07:30:56;0.40;70.80
37794;DHT22;23632;48.826;15.176;2023-02-28T07:33:23;0.50;71.70
37794;DHT22;23632;48.826;15.176;2023-02-28T07:35:50;0.50;70.70
37794;DHT22;23632;48.826;15.176;2023-02-28T07:38:18;0.60;70.70
37794;DHT22;23632;48.826;15.176;2023-02-28T07:40:45;0.70;70.70
37794;DHT22;23632;48.826;15.176;2023-02-28T07:43:12;0.70;70.60
37794;DHT22;23632;48.826;15.176;2023-02-28T07:45:39;0.80;70.50
37794;DHT22;23632;48.826;15.176;2023-02-28T07:48:06;0.80;70.40
37794;DHT22;23632;48.826;15.176;2023-02-28T07:50:36;0.90;70.30
37794;DHT22;23632;48.826;15.176;2023-02-28T07:53:03;0.90;70.20
37794;DHT22;23632;48.826;15.176;2023-02-28T07:55:31;1.00;70.20
37794;DHT22;23632;48.826;15.176;2023-02-28T07:57:58;1.00;70.30
37794;DHT22;23632;48.826;15.176;2023-02-28T08:00:25;1.20;70.60
37794;DHT22;23632;48.826;15.176;2023-02-28T08:02:52;1.20;70.50
37794;DHT22;23632;48.826;15.176;2023-02-28T08:05:19;1.40;70.30
37794;DHT22;23632;48.826;15.176;2023-02-28T08:07:49;1.50;70.00
37794;DHT22;23632;48.826;15.176;2023-02-28T08:10:16;1.60;70.00
37794;DHT22;23632;48.826;15.176;2023-02-28T08:12:43;1.70;70.10
37794;DHT22;23632;48.826;15.176;2023-02-28T08:15:10;1.80;70.10
37794;DHT22;23632;48.826;15.176;2023-02-28T08:17:37;1.90;70.20
37794;DHT22;23632;48.826;15.176;2023-02-28T08:20:05;1.90;70.20
37794;DHT22;23632;48.826;15.176;2023-02-28T08:22:33;2.00;69.70
37794;DHT22;23632;48.826;15.176;2023-02-28T08:24:59;2.10;70.00
37794;DHT22;23632;48.826;15.176;2023-02-28T08:27:27;2.10;69.70
37794;DHT22;23632;48.826;15.176;2023-02-28T08:29:54;2.20;69.50
37794;DHT22;23632;48.826;15.176;2023-02-28T08:32:21;2.30;69.50
37794;DHT22;23632;48.826;15.176;2023-02-28T08:34:56;2.30;69.30
37794;DHT22;23632;48.826;15.176;2023-02-28T08:37:23;2.40;69.10
37794;DHT22;23632;48.826;15.176;2023-02-28T08:39:51;2.40;70.00
37794;DHT22;23632;48.826;15.176;2023-02-28T08:42:22;2.50;68.90
37794;DHT22;23632;48.826;15.176;2023-02-28T08:44:49;2.50;69.00
37794;DHT22;23632;48.826;15.176;2023-02-28T08:47:16;2.60;69.00
37794;DHT22;23632;48.826;15.176;2023-02-28T08:49:43;2.70;69.00
37794;DHT22;23632;48.826;15.176;2023-02-28T08:52:10;2.70;68.90
37794;DHT22;23632;48.826;15.176;2023-02-28T08:54:37;2.80;68.80
37794;DHT22;23632;48.826;15.176;2023-02-28T08:57:05;2.80;68.80
37794;DHT22;23632;48.826;15.176;2023-02-28T08:59:32;2.90;68.80
37794;DHT22;23632;48.826;15.176;2023-02-28T09:01:59;3.00;68.70
37794;DHT22;23632;48.826;15.176;2023-02-28T09:04:26;3.10;68.80
37794;DHT22;23632;48.826;15.176;2023-02-28T09:06:53;3.20;68.80
37794;DHT22;23632;48.826;15.176;2023-02-28T09:09:20;3.30;68.80
37794;DHT22;23632;48.826;15.176;2023-02-28T09:11:47;3.50;68.60
37794;DHT22;23632;48.826;15.176;2023-02-28T09:14:14;3.60;68.30
37794;DHT22;23632;48.826;15.176;2023-02-28T09:16:43;3.70;68.20
37794;DHT22;23632;48.826;15.176;2023-02-28T09:19:12;3.90;68.10
37794;DHT22;23632;48.826;15.176;2023-02-28T09:21:39;4.10;68.20
37794;DHT22;23632;48.826;15.176;2023-02-28T09:24:07;4.20;67.80
37794;DHT22;23632;48.826;15.176;2023-02-28T09:26:34;4.40;67.80
37794;DHT22;23632;48.826;15.176;2023-02-28T09:29:17;4.50;67.60
37794;DHT22;23632;48.826;15.176;2023-02-28T09:31:44;4.70;67.30
37794;DHT22;23632;48.826;15.176;2023-02-28T09:34:11;4.80;66.90
37794;DHT22;23632;48.826;15.176;2023-02-28T09:36:38;4.90;66.80
37794;DHT22;23632;48.826;15.176;2023-02-28T09:39:12;5.10;66.60
37794;DHT22;23632;48.826;15.176;2023-02-28T09:41:44;5.20;66.30
37794;DHT22;23632;48.826;15.176;2023-02-28T09:44:22;5.30;66.10
37794;DHT22;23632;48.826;15.176;2023-02-28T09:50:07;5.60;65.70
37794;DHT22;23632;48.826;15.176;2023-02-28T09:52:43;5.70;65.50
37794;DHT22;23632;48.826;15.176;2023-02-28T09:57:42;5.80;65.10
37794;DHT22;23632;48.826;15.176;2023-02-28T10:03:32;5.90;64.90
37794;DHT22;23632;48.826;15.176;2023-02-28T10:06:19;6.00;65.00
37794;DHT22;23632;48.826;15.176;2023-02-28T10:11:46;6.00;64.70
37794;DHT22;23632;48.826;15.176;2023-02-28T10:14:24;6.00;64.70
37794;DHT22;23632;48.826;15.176;2023-02-28T10:17:18;6.10;64.60
37794;DHT22;23632;48.826;15.176;2023-02-28T10:20:07;6.20;64.70
37794;DHT22;23632;48.826;15.176;2023-02-28T10:22:53;6.30;64.50
37794;DHT22;23632;48.826;15.176;2023-02-28T10:25:46;6.40;64.20
37794;DHT22;23632;48.826;15.176;2023-02-28T10:28:17;6.50;64.40
37794;DHT22;23632;48.826;15.176;2023-02-28T10:30:52;6.60;64.20
37794;DHT22;23632;48.826;15.176;2023-02-28T10:33:34;6.70;64.20
37794;DHT22;23632;48.826;15.176;2023-02-28T10:36:02;6.80;64.20
37794;DHT22;23632;48.826;15.176;2023-02-28T10:38:38;6.90;63.90
37794;DHT22;23632;48.826;15.176;2023-02-28T10:41:09;7.00;63.80
37794;DHT22;23632;48.826;15.176;2023-02-28T10:43:43;7.00;63.60
37794;DHT22;23632;48.826;15.176;2023-02-28T10:46:18;7.20;63.60
37794;DHT22;23632;48.826;15.176;2023-02-28T10:49:04;7.20;63.40
37794;DHT22;23632;48.826;15.176;2023-02-28T10:51:40;7.30;63.20
37794;DHT22;23632;48.826;15.176;2023-02-28T10:54:19;7.40;62.50
37794;DHT22;23632;48.826;15.176;2023-02-28T10:57:21;7.50;62.50
37794;DHT22;23632;48.826;15.176;2023-02-28T11:00:07;7.50;62.50
37794;DHT22;23632;48.826;15.176;2023-02-28T11:02:39;7.50;62.10
37794;DHT22;23632;48.826;15.176;2023-02-28T11:05:26;7.50;62.50
37794;DHT22;23632;48.826;15.176;2023-02-28T11:08:06;7.50;62.50
37794;DHT22;23632;48.826;15.176;2023-02-28T11:10:39;7.40;61.80
37794;DHT22;23632;48.826;15.176;2023-02-28T11:13:06;7.40;61.90
37794;DHT22;23632;48.826;15.176;2023-02-28T11:15:34;7.40;62.00
37794;DHT22;23632;48.826;15.176;2023-02-28T11:21:34;7.40;62.20
37794;DHT22;23632;48.826;15.176;2023-02-28T11:24:30;7.40;62.30
37794;DHT22;23632;48.826;15.176;2023-02-28T11:27:01;7.40;62.60
37794;DHT22;23632;48.826;15.176;2023-02-28T11:29:30;7.40;62.90
37794;DHT22;23632;48.826;15.176;2023-02-28T11:32:28;7.50;62.70
37794;DHT22;23632;48.826;15.176;2023-02-28T11:35:17;7.70;62.90
37794;DHT22;23632;48.826;15.176;2023-02-28T11:37:48;7.80;62.50
37794;DHT22;23632;48.826;15.176;2023-02-28T11:40:26;8.00;61.90
37794;DHT22;23632;48.826;15.176;2023-02-28T11:45:44;8.20;61.40
37794;DHT22;23632;48.826;15.176;2023-02-28T11:51:35;8.30;61.30
37794;DHT22;23632;48.826;15.176;2023-02-28T11:57:39;8.50;61.20
37794;DHT22;23632;48.826;15.176;2023-02-28T12:03:26;8.50;60.60
37794;DHT22;23632;48.826;15.176;2023-02-28T12:26:38;8.20;60.80
37794;DHT22;23632;48.826;15.176;2023-02-28T12:29:17;8.30;60.60
37794;DHT22;23632;48.826;15.176;2023-02-28T12:31:58;8.30;60.40
37794;DHT22;23632;48.826;15.176;2023-02-28T12:34:35;8.30;60.50
37794;DHT22;23632;48.826;15.176;2023-02-28T12:37:12;8.20;60.30
37794;DHT22;23632;48.826;15.176;2023-02-28T12:39:45;8.20;60.60
37794;DHT22;23632;48.826;15.176;2023-02-28T12:42:28;8.20;60.50
37794;DHT22;23632;48.826;15.176;2023-02-28T12:45:00;8.20;60.50
37794;DHT22;23632;48.826;15.176;2023-02-28T12:47:29;8.20;60.30
37794;DHT22;23632;48.826;15.176;2023-02-28T12:50:05;8.20;60.20
37794;DHT22;23632;48.826;15.176;2023-02-28T12:55:16;8.20;60.20
37794;DHT22;23632;48.826;15.176;2023-02-28T12:58:27;8.20;61.30
37794;DHT22;23632;48.826;15.176;2023-02-28T13:01:13;8.20;60.50
37794;DHT22;23632;48.826;15.176;2023-02-28T13:10:10;8.10;60.50
37794;DHT22;23632;48.826;15.176;2023-02-28T13:12:48;8.00;60.20
37794;DHT22;23632;48.826;15.176;2023-02-28T13:15:25;8.00;60.20
37794;DHT22;23632;48.826;15.176;2023-02-28T13:17:58;8.00;60.20
37794;DHT22;23632;48.826;15.176;2023-02-28T13:20:47;7.90;60.30
37794;DHT22;23632;48.826;15.176;2023-02-28T13:42:47;7.80;60.40
37794;DHT22;23632;48.826;15.176;2023-02-28T13:45:27;7.80;61.50
37794;DHT22;23632;48.826;15.176;2023-02-28T13:48:00;7.70;60.80
37794;DHT22;23632;48.826;15.176;2023-02-28T13:50:32;7.80;60.50
37794;DHT22;23632;48.826;15.176;2023-02-28T14:07:28;7.80;60.30
37794;DHT22;23632;48.826;15.176;2023-02-28T14:10:04;7.80;60.00
37794;DHT22;23632;48.826;15.176;2023-02-28T14:15:38;7.70;60.10
37794;DHT22;23632;48.826;15.176;2023-02-28T14:21:19;7.60;59.70
37794;DHT22;23632;48.826;15.176;2023-02-28T14:26:35;7.50;60.20
37794;DHT22;23632;48.826;15.176;2023-02-28T14:35:44;7.50;60.60
37794;DHT22;23632;48.826;15.176;2023-02-28T14:38:22;7.50;60.30
37794;DHT22;23632;48.826;15.176;2023-02-28T14:40:52;7.50;60.30
37794;DHT22;23632;48.826;15.176;2023-02-28T14:43:26;7.50;60.30
37794;DHT22;23632;48.826;15.176;2023-02-28T14:46:00;7.50;60.50
37794;DHT22;23632;48.826;15.176;2023-02-28T14:48:30;7.40;60.60
37794;DHT22;23632;48.826;15.176;2023-02-28T14:50:59;7.40;60.60
37794;DHT22;23632;48.826;15.176;2023-02-28T14:53:35;7.40;60.50
37794;DHT22;23632;48.826;15.176;2023-02-28T14:56:03;7.40;60.70
37794;DHT22;23632;48.826;15.176;2023-02-28T14:58:34;7.40;60.90
37794;DHT22;23632;48.826;15.176;2023-02-28T15:01:02;7.40;60.90
37794;DHT22;23632;48.826;15.176;2023-02-28T15:03:38;7.40;60.60
37794;DHT22;23632;48.826;15.176;2023-02-28T15:06:13;7.30;60.70
37794;DHT22;23632;48.826;15.176;2023-02-28T15:08:42;7.30;60.60
37794;DHT22;23632;48.826;15.176;2023-02-28T15:11:17;7.30;60.60
37794;DHT22;23632;48.826;15.176;2023-02-28T15:13:53;7.20;60.60
37794;DHT22;23632;48.826;15.176;2023-02-28T15:16:39;7.10;60.60
37794;DHT22;23632;48.826;15.176;2023-02-28T15:19:20;7.00;60.70
37794;DHT22;23632;48.826;15.176;2023-02-28T15:21:56;7.00;60.70
37794;DHT22;23632;48.826;15.176;2023-02-28T15:24:46;6.90;60.60
37794;DHT22;23632;48.826;15.176;2023-02-28T15:27:25;6.70;60.70
37794;DHT22;23632;48.826;15.176;2023-02-28T15:29:57;6.70;60.70
37794;DHT22;23632;48.826;15.176;2023-02-28T15:32:29;6.70;60.90
37794;DHT22;23632;48.826;15.176;2023-02-28T15:35:16;6.60;60.90
37794;DHT22;23632;48.826;15.176;2023-02-28T15:37:53;6.60;61.00
37794;DHT22;23632;48.826;15.176;2023-02-28T15:40:28;6.50;60.90
37794;DHT22;23632;48.826;15.176;2023-02-28T15:45:46;6.40;61.10
37794;DHT22;23632;48.826;15.176;2023-02-28T15:48:23;6.40;61.10
37794;DHT22;23632;48.826;15.176;2023-02-28T15:53:50;6.30;61.30
37794;DHT22;23632;48.826;15.176;2023-02-28T15:56:34;6.20;61.20
37794;DHT22;23632;48.826;15.176;2023-02-28T15:59:05;6.20;61.20
37794;DHT22;23632;48.826;15.176;2023-02-28T16:01:37;6.20;61.20
37794;DHT22;23632;48.826;15.176;2023-02-28T16:04:16;6.10;61.20
37794;DHT22;23632;48.826;15.176;2023-02-28T16:09:24;6.00;61.30
37794;DHT22;23632;48.826;15.176;2023-02-28T16:11:55;6.00;61.40
37794;DHT22;23632;48.826;15.176;2023-02-28T16:14:25;5.90;61.40
37794;DHT22;23632;48.826;15.176;2023-02-28T16:17:03;5.90;61.50
37794;DHT22;23632;48.826;15.176;2023-02-28T16:19:32;5.80;61.50
37794;DHT22;23632;48.826;15.176;2023-02-28T16:22:00;5.70;61.60
37794;DHT22;23632;48.826;15.176;2023-02-28T16:24:27;5.70;61.70
37794;DHT22;23632;48.826;15.176;2023-02-28T16:26:55;5.60;61.70
37794;DHT22;23632;48.826;15.176;2023-02-28T16:29:27;5.60;61.70
37794;DHT22;23632;48.826;15.176;2023-02-28T16:31:56;5.60;61.90
37794;DHT22;23632;48.826;15.176;2023-02-28T16:34:24;5.50;61.90
37794;DHT22;23632;48.826;15.176;2023-02-28T16:36:52;5.50;61.90
37794;DHT22;23632;48.826;15.176;2023-02-28T16:39:19;5.40;61.90
37794;DHT22;23632;48.826;15.176;2023-02-28T16:41:50;5.40;61.90
37794;DHT22;23632;48.826;15.176;2023-02-28T16:46:55;5.20;61.90
37794;DHT22;23632;48.826;15.176;2023-02-28T16:49:22;5.10;61.80
37794;DHT22;23632;48.826;15.176;2023-02-28T16:51:49;4.90;61.80
37794;DHT22;23632;48.826;15.176;2023-02-28T16:54:16;4.80;61.90
37794;DHT22;23632;48.826;15.176;2023-02-28T16:56:46;4.70;62.10
37794;DHT22;23632;48.826;15.176;2023-02-28T16:59:17;4.50;62.20
37794;DHT22;23632;48.826;15.176;2023-02-28T17:01:46;4.40;62.20
37794;DHT22;23632;48.826;15.176;2023-02-28T17:04:13;4.30;63.30
37794;DHT22;23632;48.826;15.176;2023-02-28T17:06:42;4.10;62.40
37794;DHT22;23632;48.826;15.176;2023-02-28T17:09:27;4.00;62.30
37794;DHT22;23632;48.826;15.176;2023-02-28T17:12:07;3.90;62.60
37794;DHT22;23632;48.826;15.176;2023-02-28T17:14:35;3.80;62.80
37794;DHT22;23632;48.826;15.176;2023-02-28T17:17:04;3.70;62.80
37794;DHT22;23632;48.826;15.176;2023-02-28T17:19:32;3.60;63.10
37794;DHT22;23632;48.826;15.176;2023-02-28T17:22:00;3.50;63.00
37794;DHT22;23632;48.826;15.176;2023-02-28T17:24:27;3.40;63.00
37794;DHT22;23632;48.826;15.176;2023-02-28T17:26:57;3.30;63.20
37794;DHT22;23632;48.826;15.176;2023-02-28T17:29:24;3.20;63.20
37794;DHT22;23632;48.826;15.176;2023-02-28T17:31:51;3.10;63.30
37794;DHT22;23632;48.826;15.176;2023-02-28T17:34:18;3.00;63.30
37794;DHT22;23632;48.826;15.176;2023-02-28T17:36:49;2.90;63.40
37794;DHT22;23632;48.826;15.176;2023-02-28T17:39:18;2.80;63.50
37794;DHT22;23632;48.826;15.176;2023-02-28T17:41:55;2.70;63.60
37794;DHT22;23632;48.826;15.176;2023-02-28T17:44:23;2.70;63.70
37794;DHT22;23632;48.826;15.176;2023-02-28T17:46:52;2.60;63.80
37794;DHT22;23632;48.826;15.176;2023-02-28T17:49:20;2.60;63.80
37794;DHT22;23632;48.826;15.176;2023-02-28T17:51:48;2.50;63.90
37794;DHT22;23632;48.826;15.176;2023-02-28T17:54:15;2.40;63.90
37794;DHT22;23632;48.826;15.176;2023-02-28T17:56:44;2.30;63.90
37794;DHT22;23632;48.826;15.176;2023-02-28T17:59:12;2.30;64.00
37794;DHT22;23632;48.826;15.176;2023-02-28T18:01:39;2.20;64.10
37794;DHT22;23632;48.826;15.176;2023-02-28T18:04:06;2.10;64.10
37794;DHT22;23632;48.826;15.176;2023-02-28T18:06:41;2.10;64.20
37794;DHT22;23632;48.826;15.176;2023-02-28T18:09:18;2.00;64.40
37794;DHT22;23632;48.826;15.176;2023-02-28T18:11:51;2.00;64.40
37794;DHT22;23632;48.826;15.176;2023-02-28T18:14:20;1.90;64.50
37794;DHT22;23632;48.826;15.176;2023-02-28T18:16:51;1.90;64.60
37794;DHT22;23632;48.826;15.176;2023-02-28T18:19:19;1.80;64.60
37794;DHT22;23632;48.826;15.176;2023-02-28T18:21:49;1.80;64.70
37794;DHT22;23632;48.826;15.176;2023-02-28T18:24:19;1.80;64.80
37794;DHT22;23632;48.826;15.176;2023-02-28T18:26:47;1.70;64.80